Time;durP1;ratioP1;P1;durP2;ratioP2;P2;SDS_P1;SDS_P2;PMS_P1;PMS_P2;Temp;Humidity;BMP_temperature;BMP_pressure;BME280_temperature;BME280_humidity;BME280_pressure;Samples;Min_cycle;Max_cycle;Signal;HPM_P1;HPM_P2
2022/12/15 00:40:40;;;;;;;31.58;18.35;;;;;;;-1.35;100.00;97593.00;5038214;28;20048;-61
2022/12/15 00:43:29;;;;;;;31.20;17.65;;;;;;;-1.31;100.00;97592.81;5048221;28;20041;-61
2022/12/15 01:22:54;;;;;;;28.83;17.63;;;;;;;-1.30;100.00;97619.31;5040781;28;20201;-61
2022/12/15 01:25:38;;;;;;;31.80;18.02;;;;;;;-1.13;100.00;97624.66;5046254;28;20045;-61
2022/12/15 01:28:23;;;;;;;30.98;19.10;;;;;;;-1.37;100.00;97629.00;5048356;28;20076;-61
2022/12/15 01:31:10;;;;;;;34.38;19.95;;;;;;;-1.28;100.00;97626.09;5048478;28;20126;-61
2022/12/15 01:33:54;;;;;;;29.48;17.35;;;;;;;-1.39;100.00;97633.38;5037386;28;20044;-62
2022/12/15 01:36:40;;;;;;;30.08;17.70;;;;;;;-1.45;100.00;97643.91;5047584;28;20075;-61
2022/12/15 01:40:43;;;;;;;32.97;19.45;;;;;;;-1.55;100.00;97646.78;5048924;28;20454;-62
2022/12/15 01:42:29;;;;;;;27.23;17.08;;;;;;;-1.34;100.00;97630.63;5043434;28;20069;-63
2022/12/15 01:45:43;;;;;;;32.03;18.20;;;;;;;-1.29;100.00;97634.69;5048565;28;20072;-61
2022/12/15 01:48:39;;;;;;;34.30;19.85;;;;;;;-1.24;100.00;97630.22;5048636;28;20071;-61
2022/12/15 01:51:32;;;;;;;35.67;20.30;;;;;;;-1.29;100.00;97634.69;5045970;28;20048;-62
2022/12/15 01:54:22;;;;;;;;;;;;;;;-1.20;100.00;97630.09;5048314;28;20060;-62
2022/12/15 01:57:13;;;;;;;30.05;18.30;;;;;;;-1.05;100.00;97636.38;5042000;28;19927;-64
2022/12/15 02:00:01;;;;;;;32.58;18.85;;;;;;;-1.08;100.00;97634.78;5040281;28;20041;-61
2022/12/15 02:02:46;;;;;;;34.63;20.85;;;;;;;-1.33;100.00;97642.56;5047701;28;20037;-61
2022/12/15 02:05:32;;;;;;;34.28;19.30;;;;;;;-1.24;100.00;97652.53;5048192;28;20064;-62
2022/12/15 02:08:17;;;;;;;33.90;19.95;;;;;;;-1.16;100.00;97659.94;5039983;28;20053;-62
2022/12/15 02:11:17;;;;;;;35.92;19.92;;;;;;;-1.28;100.00;97654.38;5036754;28;20048;-61
2022/12/15 02:14:08;;;;;;;36.75;20.08;;;;;;;-1.21;100.00;97651.56;5046786;28;20049;-60
2022/12/15 02:17:04;;;;;;;35.88;19.75;;;;;;;-1.22;100.00;97663.56;5046754;28;20080;-60
2022/12/15 02:20:11;;;;;;;32.97;20.02;;;;;;;-1.36;100.00;97656.38;5048047;28;20056;-62
2022/12/15 02:23:33;;;;;;;34.60;20.40;;;;;;;-1.26;100.00;97665.41;5048102;28;20131;-63
2022/12/15 02:26:53;;;;;;;33.08;18.83;;;;;;;-1.20;100.00;97681.50;5042220;28;20458;-59
2022/12/15 02:30:05;;;;;;;32.65;19.52;;;;;;;-1.12;100.00;97677.75;5047864;28;20412;-61
2022/12/15 02:33:08;;;;;;;34.80;19.52;;;;;;;-1.17;100.00;97669.38;5014279;28;20051;-60
2022/12/15 02:35:59;;;;;;;34.67;19.05;;;;;;;-1.18;100.00;97675.44;5046332;28;20052;-64
2022/12/15 02:38:43;;;;;;;35.40;20.02;;;;;;;-1.24;100.00;97696.22;5038783;28;20044;-61
2022/12/15 02:41:40;;;;;;;31.85;19.88;;;;;;;-1.24;100.00;97689.34;5046001;28;20506;-61
2022/12/15 02:44:37;;;;;;;32.78;19.58;;;;;;;-1.21;100.00;97690.13;5045083;28;20048;-61
2022/12/15 02:47:32;;;;;;;32.40;19.75;;;;;;;-1.13;100.00;97681.19;5050280;28;20057;-62
2022/12/15 02:50:45;;;;;;;32.28;18.48;;;;;;;-1.21;100.00;97672.97;5050944;28;20052;-61
2022/12/15 02:53:33;;;;;;;34.20;19.55;;;;;;;-0.98;100.00;97683.25;5051174;28;20519;-61
2022/12/15 02:56:31;;;;;;;32.47;17.67;;;;;;;-0.83;100.00;97690.38;5042586;28;20045;-61
2022/12/15 02:59:54;;;;;;;34.42;19.50;;;;;;;-0.77;100.00;97692.69;5050579;28;20045;-61
2022/12/15 03:02:45;;;;;;;34.08;20.63;;;;;;;-0.78;100.00;97690.19;5044214;28;20119;-61
2022/12/15 03:05:30;;;;;;;36.30;20.67;;;;;;;-0.81;100.00;97696.31;5050874;28;20051;-61
2022/12/15 03:08:15;;;;;;;34.53;20.05;;;;;;;-0.66;100.00;97717.16;5050387;28;20136;-60
2022/12/15 03:11:00;;;;;;;32.50;19.20;;;;;;;-0.68;100.00;97706.09;5050891;28;20069;-61
2022/12/15 03:13:45;;;;;;;30.42;19.30;;;;;;;-0.76;100.00;97699.53;5049932;28;20048;-61
2022/12/15 03:16:30;;;;;;;35.58;18.63;;;;;;;-0.77;100.00;97705.56;5039842;28;20082;-61
2022/12/15 03:19:15;;;;;;;33.08;19.65;;;;;;;-0.95;100.00;97704.56;5050680;28;20488;-61
2022/12/15 03:21:59;;;;;;;34.00;19.55;;;;;;;-0.91;100.00;97713.81;5050043;28;20041;-61
2022/12/15 03:24:44;;;;;;;35.88;19.88;;;;;;;-0.76;100.00;97717.53;5044629;28;20119;-61
2022/12/15 03:27:28;;;;;;;37.22;20.92;;;;;;;-0.83;100.00;97734.09;5048504;28;20033;-64
2022/12/15 03:30:14;;;;;;;37.50;21.10;;;;;;;-1.17;100.00;97723.38;5041938;28;20131;-61
2022/12/15 03:32:58;;;;;;;37.33;21.23;;;;;;;-1.12;100.00;97730.91;5050682;28;20115;-61
2022/12/15 03:35:42;;;;;;;32.92;19.55;;;;;;;-1.02;100.00;97736.53;5040385;28;20111;-61
2022/12/15 03:38:27;;;;;;;33.70;19.00;;;;;;;-0.89;100.00;97750.63;5049788;28;20446;-62
2022/12/15 03:41:12;;;;;;;33.35;20.05;;;;;;;-0.89;100.00;97750.63;5048935;28;20037;-61
2022/12/15 03:43:57;;;;;;;32.70;20.17;;;;;;;-0.89;100.00;97747.19;5050572;28;20148;-61
2022/12/15 03:46:41;;;;;;;36.72;19.85;;;;;;;-0.93;100.00;97749.03;5046215;28;20079;-62
2022/12/15 03:49:26;;;;;;;37.65;20.50;;;;;;;-0.98;100.00;97750.97;5048255;28;20048;-61
2022/12/15 03:52:11;;;;;;;34.53;20.08;;;;;;;-0.92;100.00;97760.19;5048479;28;20148;-64
2022/12/15 03:54:55;;;;;;;38.63;21.42;;;;;;;-0.96;100.00;97762.00;5048426;28;20146;-62
2022/12/15 03:57:41;;;;;;;36.40;20.60;;;;;;;-0.95;100.00;97762.88;5034767;28;20412;-60
2022/12/15 04:00:28;;;;;;;36.17;20.38;;;;;;;-0.89;100.00;97778.91;5044562;28;20044;-61
2022/12/15 04:03:12;;;;;;;36.58;20.33;;;;;;;-1.08;100.00;97767.63;5047249;28;20041;-61
2022/12/15 04:05:57;;;;;;;34.30;19.90;;;;;;;-1.00;100.00;97763.03;5047759;28;20041;-61
2022/12/15 04:08:42;;;;;;;36.85;20.17;;;;;;;-0.92;100.00;97765.31;5060463;28;20200;-62
2022/12/15 04:11:27;;;;;;;33.00;19.15;;;;;;;-0.73;100.00;97768.03;5045039;28;20048;-61
2022/12/15 04:14:12;;;;;;;34.53;19.80;;;;;;;-0.62;100.00;97780.50;5049621;28;20499;-60
2022/12/15 04:16:57;;;;;;;39.40;21.77;;;;;;;-0.56;100.00;97772.53;5049645;28;20047;-61
2022/12/15 04:22:48;;;;;;;34.50;19.30;;;;;;;-0.33;100.00;97769.94;5046207;28;20091;-61
2022/12/15 05:33:01;;;;;;;45.03;24.35;;;;;;;-0.20;100.00;97850.09;5060492;28;20053;-60
2022/12/15 05:35:46;;;;;;;42.58;23.35;;;;;;;-0.14;100.00;97853.28;5046593;28;20045;-61
2022/12/15 05:38:30;;;;;;;42.58;23.10;;;;;;;-0.13;100.00;97860.09;5028463;28;20059;-64
2022/12/15 05:41:19;;;;;;;36.90;21.85;;;;;;;-0.13;100.00;97862.69;5038196;28;20041;-61
2022/12/15 05:44:04;;;;;;;41.25;23.25;;;;;;;-0.05;100.00;97862.38;5046777;28;20049;-61
2022/12/15 05:46:50;;;;;;;38.33;20.73;;;;;;;-0.05;100.00;97858.97;5048506;28;20041;-61
2022/12/15 05:49:36;;;;;;;37.42;20.63;;;;;;;0.00;100.00;97867.38;5049620;28;20124;-62
2022/12/15 05:52:20;;;;;;;46.03;24.35;;;;;;;0.03;100.00;97866.38;5046902;28;20048;-61
2022/12/15 05:55:05;;;;;;;39.13;21.33;;;;;;;0.04;100.00;97876.63;5046412;28;20041;-61
2022/12/15 05:57:53;;;;;;;42.45;23.80;;;;;;;0.01;100.00;97866.44;5031814;28;20055;-61
2022/12/15 06:00:37;;;;;;;41.28;22.38;;;;;;;0.02;100.00;97868.13;5053448;28;20142;-61
2022/12/15 06:03:22;;;;;;;47.45;24.98;;;;;;;0.04;100.00;97874.06;5054718;28;20048;-62
2022/12/15 06:06:09;;;;;;;43.40;24.02;;;;;;;0.01;100.00;97881.06;5049586;28;20049;-62
2022/12/15 06:08:54;;;;;;;39.63;22.42;;;;;;;-0.07;100.00;97891.66;5053057;28;20091;-62
2022/12/15 06:11:40;;;;;;;43.70;23.80;;;;;;;0.02;100.00;97895.63;5065618;28;20147;-62
2022/12/15 06:14:24;;;;;;;41.10;23.58;;;;;;;0.06;100.00;97903.19;5061024;28;20044;-62
2022/12/15 06:17:09;;;;;;;44.65;24.20;;;;;;;0.13;100.00;97890.91;5057703;28;20142;-64
2022/12/15 06:19:53;;;;;;;47.22;26.88;;;;;;;-0.02;100.00;97898.31;5056756;28;20045;-62
2022/12/15 06:22:38;;;;;;;49.25;27.40;;;;;;;0.00;100.00;97908.56;5069376;28;20052;-62
2022/12/15 06:25:23;;;;;;;36.15;19.00;;;;;;;0.29;100.00;97887.69;5064810;28;20041;-62
2022/12/15 06:28:07;;;;;;;45.00;23.40;;;;;;;0.49;100.00;97877.41;5062516;28;20064;-62
2022/12/15 06:30:54;;;;;;;43.67;25.08;;;;;;;-0.17;100.00;97898.91;5050738;28;20052;-62
2022/12/15 06:33:39;;;;;;;41.58;23.92;;;;;;;-0.17;100.00;97893.75;5047296;28;20040;-62
2022/12/15 06:36:24;;;;;;;42.72;24.83;;;;;;;-0.37;100.00;97874.75;5051043;28;20041;-61
2022/12/15 06:39:15;;;;;;;34.67;19.70;;;;;;;-0.28;100.00;97886.47;5049413;28;20103;-61
2022/12/15 06:41:59;;;;;;;37.70;23.15;;;;;;;-0.23;100.00;97889.69;5077869;28;20041;-62
2022/12/15 06:44:44;;;;;;;44.33;23.67;;;;;;;-0.30;100.00;97893.38;5049610;28;20053;-64
2022/12/15 06:47:29;;;;;;;42.25;24.30;;;;;;;-0.59;100.00;97891.03;5051472;28;20146;-61
2022/12/15 06:50:14;;;;;;;43.90;23.75;;;;;;;-0.51;100.00;97913.91;5040918;28;20053;-62
2022/12/15 06:52:59;;;;;;;37.60;18.75;;;;;;;-0.26;100.00;97923.25;5050943;28;20112;-61
2022/12/15 06:55:43;;;;;;;41.53;22.77;;;;;;;-0.16;100.00;97923.75;5044631;28;20473;-61
2022/12/15 06:58:28;;;;;;;41.65;22.50;;;;;;;-0.06;100.00;97930.25;5051218;28;20041;-60
2022/12/15 07:01:16;;;;;;;39.17;21.25;;;;;;;-0.10;100.00;97938.16;5050888;28;20037;-60
2022/12/15 07:04:04;;;;;;;45.13;25.48;;;;;;;0.05;100.00;97932.38;5049451;28;20150;-63
2022/12/15 07:06:49;;;;;;;49.05;27.75;;;;;;;-0.17;100.00;97947.84;5048521;28;20060;-62
2022/12/15 07:09:33;;;;;;;43.47;25.02;;;;;;;-0.12;100.00;97945.94;5049596;28;20055;-60
2022/12/15 07:12:18;;;;;;;42.05;23.27;;;;;;;0.15;100.00;97960.41;5048337;28;20045;-60
2022/12/15 07:15:03;;;;;;;37.53;20.52;;;;;;;0.42;100.00;97962.78;5050843;28;20049;-61
2022/12/15 07:17:48;;;;;;;26.45;14.70;;;;;;;0.77;100.00;97959.69;5044326;28;20033;-61
2022/12/15 07:20:32;;;;;;;32.00;16.40;;;;;;;1.27;100.00;97960.19;5047788;28;20041;-65
2022/12/15 07:23:17;;;;;;;32.17;17.48;;;;;;;1.45;100.00;97958.53;5050605;28;20040;-62
2022/12/15 07:26:07;;;;;;;37.85;19.58;;;;;;;1.41;100.00;97957.81;5047693;28;20115;-61
2022/12/15 07:28:52;;;;;;;46.03;24.92;;;;;;;1.28;100.00;97973.00;5050467;28;20197;-62
2022/12/15 07:31:37;;;;;;;33.95;18.75;;;;;;;1.20;100.00;97985.41;5050066;28;20041;-63
2022/12/15 07:34:22;;;;;;;34.67;17.70;;;;;;;1.12;100.00;97995.22;5050110;28;20049;-63
2022/12/15 07:37:07;;;;;;;38.10;20.15;;;;;;;1.35;100.00;97991.66;5050472;28;20045;-63
2022/12/15 07:39:52;;;;;;;46.40;23.55;;;;;;;1.27;100.00;97999.75;5050254;28;20136;-62
2022/12/15 07:42:37;;;;;;;47.33;24.00;;;;;;;1.14;100.00;97996.84;5037798;28;20057;-63
2022/12/15 07:45:22;;;;;;;48.08;22.45;;;;;;;1.05;100.00;98010.09;5048011;28;20045;-63
2022/12/15 07:48:06;;;;;;;45.22;24.10;;;;;;;0.71;100.00;98009.75;5046430;28;20053;-62
2022/12/15 07:50:56;;;;;;;43.22;22.17;;;;;;;0.49;100.00;98011.44;5048561;28;20060;-62
2022/12/15 07:53:40;;;;;;;45.20;24.20;;;;;;;0.52;100.00;98025.97;5046161;28;20117;-63
2022/12/15 07:56:25;;;;;;;45.33;23.45;;;;;;;0.43;100.00;98029.72;5050086;28;20202;-61
2022/12/15 07:59:09;;;;;;;43.33;23.33;;;;;;;0.36;100.00;98031.69;5039054;28;20760;-62
2022/12/15 08:01:54;;;;;;;39.55;22.27;;;;;;;0.38;100.00;98036.78;5049105;28;20515;-63
2022/12/15 08:04:39;;;;;;;37.70;21.55;;;;;;;0.34;100.00;98040.41;5048232;28;20041;-62
2022/12/15 08:07:24;;;;;;;39.53;22.33;;;;;;;0.54;100.00;98052.50;5044819;28;20102;-61
2022/12/15 08:10:09;;;;;;;38.42;20.90;;;;;;;0.60;100.00;98057.41;5046804;28;20083;-61
2022/12/15 08:12:54;;;;;;;41.28;22.50;;;;;;;0.56;100.00;98063.59;5045590;28;20106;-61
2022/12/15 08:15:39;;;;;;;41.03;23.25;;;;;;;0.46;100.00;98073.44;5046308;28;20461;-61
2022/12/15 08:18:24;;;;;;;41.70;23.55;;;;;;;0.40;100.00;98067.66;5046364;28;20045;-61
2022/12/15 08:21:10;;;;;;;47.17;26.80;;;;;;;0.32;100.00;98060.22;5047821;28;20065;-62
2022/12/15 08:23:55;;;;;;;40.00;22.50;;;;;;;0.22;100.00;98054.56;5046329;28;20147;-62
2022/12/15 08:26:41;;;;;;;50.45;25.58;;;;;;;0.33;100.00;98057.59;5047771;28;20056;-62
2022/12/15 08:29:26;;;;;;;48.53;26.80;;;;;;;0.33;100.00;98055.00;5046865;28;20405;-62
2022/12/15 08:32:12;;;;;;;49.17;26.55;;;;;;;0.53;100.00;98050.84;5048201;28;20045;-61
2022/12/15 08:34:57;;;;;;;44.72;25.88;;;;;;;0.64;100.00;98067.63;5047620;28;20492;-61
2022/12/15 08:37:42;;;;;;;47.28;25.98;;;;;;;0.63;100.00;98073.66;5043392;28;20052;-62
2022/12/15 08:40:26;;;;;;;52.03;27.40;;;;;;;0.81;100.00;98074.69;5049233;28;20045;-61
2022/12/15 08:43:11;;;;;;;53.35;28.63;;;;;;;0.55;100.00;98079.13;5048659;28;20072;-62
2022/12/15 08:45:58;;;;;;;51.30;27.92;;;;;;;0.37;100.00;98084.09;5038405;28;20048;-62
2022/12/15 08:48:42;;;;;;;67.05;33.30;;;;;;;0.41;100.00;98083.06;5047844;28;20116;-61
2022/12/15 08:51:29;;;;;;;57.28;29.55;;;;;;;0.29;100.00;98071.50;5048695;28;20075;-62
2022/12/15 08:54:14;;;;;;;55.65;28.67;;;;;;;0.24;100.00;98069.06;5040355;28;20087;-62
2022/12/15 08:56:59;;;;;;;57.53;29.33;;;;;;;0.15;100.00;98078.91;5048671;28;20804;-62
2022/12/15 08:59:43;;;;;;;56.78;29.90;;;;;;;-0.15;100.00;98077.38;5049069;28;20075;-61
2022/12/15 09:02:28;;;;;;;62.17;30.17;;;;;;;0.10;100.00;98082.47;5049059;28;20601;-62
2022/12/15 09:05:13;;;;;;;59.72;29.88;;;;;;;0.18;100.00;98071.06;5046300;28;20075;-61
2022/12/15 09:07:58;;;;;;;67.13;31.90;;;;;;;0.05;100.00;98078.41;5035574;28;20041;-61
2022/12/15 09:10:42;;;;;;;61.72;30.92;;;;;;;0.04;100.00;98069.81;5038584;28;20080;-61
2022/12/15 09:13:28;;;;;;;58.17;30.42;;;;;;;0.11;100.00;98086.72;5048858;28;20053;-62
2022/12/15 09:16:16;;;;;;;52.00;27.60;;;;;;;0.51;100.00;98104.19;5044497;28;20045;-60
2022/12/15 09:19:01;;;;;;;51.65;27.13;;;;;;;0.35;100.00;98089.31;5048002;28;20120;-61
2022/12/15 09:21:46;;;;;;;51.90;26.23;;;;;;;0.22;100.00;98093.22;5047547;28;20152;-61
2022/12/15 09:24:31;;;;;;;50.40;26.88;;;;;;;0.20;100.00;98092.44;5044988;28;20467;-62
2022/12/15 09:27:16;;;;;;;48.30;26.60;;;;;;;0.04;100.00;98098.16;5048552;28;20048;-62
2022/12/15 09:30:01;;;;;;;47.22;25.95;;;;;;;0.18;100.00;98096.81;5040726;28;20045;-61
2022/12/15 09:32:46;;;;;;;50.08;26.13;;;;;;;0.30;100.00;98098.94;5046883;28;20163;-62
2022/12/15 09:35:31;;;;;;;50.83;27.17;;;;;;;0.12;100.00;98095.31;5044165;28;20052;-63
2022/12/15 09:38:15;;;;;;;50.38;26.35;;;;;;;0.05;100.00;98101.59;5043563;28;20460;-59
2022/12/15 09:41:20;;;;;;;53.17;27.50;;;;;;;0.24;100.00;98096.59;5044471;28;20033;-60
2022/12/15 09:44:14;;;;;;;51.22;24.83;;;;;;;0.47;100.00;98102.63;5047798;28;20045;-61
2022/12/15 09:47:27;;;;;;;46.13;25.55;;;;;;;0.36;100.00;98121.06;5044963;28;20556;-62
2022/12/15 09:50:14;;;;;;;46.97;25.27;;;;;;;0.60;100.00;98118.47;5044873;28;20404;-62
2022/12/15 09:53:04;;;;;;;47.60;25.98;;;;;;;0.68;100.00;98113.00;5042396;28;20735;-59
2022/12/15 09:55:56;;;;;;;49.33;26.33;;;;;;;0.53;100.00;98104.13;5047944;28;20076;-61
2022/12/15 09:59:02;;;;;;;48.45;25.58;;;;;;;0.58;100.00;98113.38;5051061;28;20055;-61
2022/12/15 10:02:12;;;;;;;47.50;25.33;;;;;;;0.65;100.00;98119.16;5047875;28;20045;-64
2022/12/15 10:05:18;;;;;;;49.15;28.40;;;;;;;0.66;100.00;98115.66;5042741;28;20052;-61
2022/12/15 10:08:04;;;;;;;48.20;24.98;;;;;;;0.82;100.00;98112.47;5049965;28;20041;-61
2022/12/15 10:11:31;;;;;;;46.20;25.20;;;;;;;0.73;100.00;98109.34;5045912;28;20106;-60
2022/12/15 10:14:15;;;;;;;52.33;25.02;;;;;;;0.65;100.00;98101.09;5011699;28;20707;-60
2022/12/15 10:17:22;;;;;;;44.22;25.05;;;;;;;0.49;100.00;98098.25;5027829;28;20774;-61
2022/12/15 10:20:18;;;;;;;47.47;26.20;;;;;;;0.47;100.00;98087.16;5027867;28;20132;-64
2022/12/15 10:23:15;;;;;;;49.63;26.60;;;;;;;0.32;100.00;98104.03;5027921;28;20087;-62
2022/12/15 10:26:18;;;;;;;55.05;27.30;;;;;;;0.27;100.00;98111.09;5028332;28;20049;-62
2022/12/15 10:29:17;;;;;;;59.88;29.25;;;;;;;0.40;100.00;98109.75;5020923;28;20120;-63
2022/12/15 10:32:14;;;;;;;43.42;23.52;;;;;;;0.66;100.00;98119.97;5019878;28;20049;-65
2022/12/15 10:34:58;;;;;;;48.53;25.95;;;;;;;0.78;100.00;98111.78;5022903;28;20518;-61
2022/12/15 10:37:43;;;;;;;49.97;27.13;;;;;;;0.59;100.00;98109.03;5027734;28;20037;-66
2022/12/15 10:41:02;;;;;;;57.88;28.70;;;;;;;0.69;100.00;98112.97;5013402;28;20129;-63
2022/12/15 10:43:51;;;;;;;49.72;26.83;;;;;;;0.73;100.00;98105.94;4968843;28;20078;-62
2022/12/15 10:46:36;;;;;;;47.92;26.42;;;;;;;0.69;100.00;98092.31;4955181;28;20459;-62
2022/12/15 10:49:23;;;;;;;52.35;27.65;;;;;;;0.58;100.00;98099.63;4976281;28;20046;-62
2022/12/15 10:52:36;;;;;;;55.03;29.05;;;;;;;0.69;100.00;98096.63;4957734;28;20108;-63
2022/12/15 10:55:38;;;;;;;50.60;28.08;;;;;;;0.56;100.00;98097.13;4987822;28;20063;-61
2022/12/15 10:58:23;;;;;;;51.20;26.63;;;;;;;0.59;100.00;98101.31;4987706;28;20046;-62
2022/12/15 11:01:16;;;;;;;63.42;30.33;;;;;;;0.13;100.00;98091.00;4987992;28;20061;-63
2022/12/15 11:04:01;;;;;;;54.75;28.08;;;;;;;0.23;100.00;98090.59;4959311;28;20498;-63
2022/12/15 11:06:47;;;;;;;54.30;29.00;;;;;;;0.31;100.00;98089.47;4986077;28;20046;-62
2022/12/15 11:09:34;;;;;;;53.92;28.80;;;;;;;0.20;100.00;98082.97;4986197;28;20066;-61
2022/12/15 11:15:30;;;;;;;56.75;30.63;;;;;;;0.24;100.00;98084.53;4973825;28;20046;-62
2022/12/15 11:18:23;;;;;;;52.95;27.48;;;;;;;0.43;100.00;98108.78;4995811;28;20045;-60
2022/12/15 11:21:58;;;;;;;53.03;29.23;;;;;;;0.34;100.00;98104.81;5047563;28;20049;-61
2022/12/15 11:25:14;;;;;;;51.08;27.88;;;;;;;0.47;100.00;98111.19;5026120;28;20119;-60
2022/12/15 11:28:05;;;;;;;51.88;27.63;;;;;;;0.47;100.00;98112.94;4947587;28;20039;-60
2022/12/15 11:31:03;;;;;;;58.13;30.65;;;;;;;0.42;100.00;98109.69;4963638;28;20450;-61
2022/12/15 11:33:52;;;;;;;56.30;28.38;;;;;;;0.39;100.00;98110.66;4946606;28;20085;-62
2022/12/15 11:36:50;;;;;;;47.92;25.48;;;;;;;0.63;100.00;98105.47;4948270;28;20512;-63
2022/12/15 11:39:54;;;;;;;55.85;26.45;;;;;;;0.66;100.00;98097.59;4948077;28;20526;-62
2022/12/15 11:42:43;;;;;;;41.97;24.55;;;;;;;0.93;100.00;98105.16;4948799;28;20580;-64
2022/12/15 11:45:39;;;;;;;48.60;26.85;;;;;;;0.79;100.00;98110.88;4948810;29;20055;-63
2022/12/15 11:48:57;;;;;;;47.95;26.58;;;;;;;0.61;100.00;98113.25;4948662;28;20043;-62
2022/12/15 11:51:56;;;;;;;47.92;26.23;;;;;;;0.74;100.00;98120.50;4949117;29;20047;-63
2022/12/15 11:54:52;;;;;;;55.20;27.50;;;;;;;0.60;100.00;98119.28;4946516;29;20177;-62
2022/12/15 11:58:23;;;;;;;51.50;27.17;;;;;;;0.46;100.00;98111.25;4948077;28;20081;-63
2022/12/15 12:01:23;;;;;;;53.30;27.40;;;;;;;0.55;100.00;98104.91;4891072;29;20056;-64
2022/12/15 12:04:17;;;;;;;51.28;28.40;;;;;;;0.62;100.00;98103.75;4935834;28;20133;-66
2022/12/15 12:07:04;;;;;;;58.85;30.65;;;;;;;0.65;100.00;98100.25;4968336;28;20051;-65
2022/12/15 12:10:23;;;;;;;66.25;31.58;;;;;;;0.21;100.00;98084.66;4960197;28;20103;-63
2022/12/15 12:13:29;;;;;;;60.08;30.60;;;;;;;0.29;100.00;98088.69;4964301;28;20441;-64
2022/12/15 12:16:16;;;;;;;59.63;30.08;;;;;;;0.31;100.00;98085.16;4965006;28;20530;-60
2022/12/15 12:19:09;;;;;;;60.03;31.73;;;;;;;0.42;100.00;98091.66;4962008;28;20059;-62
2022/12/15 12:22:04;;;;;;;62.22;31.60;;;;;;;0.56;100.00;98099.69;4951125;28;20055;-60
2022/12/15 12:25:16;;;;;;;62.42;30.20;;;;;;;0.55;100.00;98089.44;4966528;28;20514;-61
2022/12/15 12:28:22;;;;;;;64.03;32.60;;;;;;;0.28;100.00;98087.03;4962257;28;20050;-61
2022/12/15 12:31:21;;;;;;;57.88;29.48;;;;;;;0.51;100.00;98077.59;4963478;28;20047;-62
2022/12/15 12:34:23;;;;;;;57.47;27.80;;;;;;;0.78;100.00;98082.56;4965638;28;20047;-61
2022/12/15 12:37:34;;;;;;;54.97;27.13;;;;;;;1.01;100.00;98084.22;4971853;28;20128;-64
2022/12/15 12:40:27;;;;;;;58.53;28.88;;;;;;;0.57;100.00;98085.91;5003844;28;20054;-62
2022/12/15 12:43:31;;;;;;;60.80;30.65;;;;;;;0.22;100.00;98078.63;4991139;28;20049;-62
2022/12/15 12:46:33;;;;;;;57.67;29.98;;;;;;;0.15;100.00;98071.19;5000617;28;20046;-62
2022/12/15 12:49:41;;;;;;;56.20;28.83;;;;;;;0.46;100.00;98080.31;5005369;28;20119;-65
2022/12/15 12:52:36;;;;;;;55.05;29.17;;;;;;;0.38;100.00;98074.63;4992614;28;20599;-62
2022/12/15 12:55:27;;;;;;;61.72;28.95;;;;;;;0.46;100.00;98083.75;4969216;28;20160;-61
2022/12/15 12:58:33;;;;;;;66.78;31.38;;;;;;;0.24;100.00;98101.75;5004848;28;20509;-61
2022/12/15 13:01:25;;;;;;;63.40;31.27;;;;;;;-0.05;100.00;98098.50;4991652;28;20042;-63
2022/12/15 13:04:32;;;;;;;61.17;29.23;;;;;;;0.77;100.00;98120.38;5002708;28;20050;-64
2022/12/15 13:07:39;;;;;;;62.03;28.55;;;;;;;0.77;100.00;98130.72;4942486;29;20043;-63
2022/12/15 13:10:24;;;;;;;60.60;31.52;;;;;;;0.75;100.00;98131.69;4944678;29;20044;-62
2022/12/15 13:13:28;;;;;;;55.00;26.17;;;;;;;0.92;100.00;98144.75;4930670;29;20188;-64
2022/12/15 13:16:25;;;;;;;55.83;28.30;;;;;;;0.70;100.00;98155.88;4951292;28;20467;-62
2022/12/15 13:19:09;;;;;;;43.00;22.25;;;;;;;0.83;100.00;98163.19;4985211;28;20073;-63
2022/12/15 13:21:54;;;;;;;60.17;28.98;;;;;;;1.04;100.00;98158.94;4985229;28;20563;-66
2022/12/15 13:24:46;;;;;;;59.88;29.58;;;;;;;1.08;100.00;98150.16;4987189;28;20157;-64
2022/12/15 13:27:39;;;;;;;58.67;28.35;;;;;;;0.83;100.00;98145.13;4986185;28;20050;-63
2022/12/15 13:30:25;;;;;;;61.28;30.35;;;;;;;0.77;100.00;98138.44;4986222;28;20869;-62
2022/12/15 13:33:16;;;;;;;59.70;29.27;;;;;;;0.44;100.00;98131.91;4983298;28;20060;-62
2022/12/15 13:36:00;;;;;;;62.03;29.83;;;;;;;0.52;100.00;98131.66;4985684;28;20497;-63
2022/12/15 13:38:53;;;;;;;72.53;33.53;;;;;;;0.09;100.00;98111.72;4982514;28;20169;-61
2022/12/15 13:41:41;;;;;;;65.78;30.88;;;;;;;0.17;100.00;98100.28;4986896;28;20054;-62
2022/12/15 13:44:34;;;;;;;66.22;31.02;;;;;;;0.13;100.00;98089.28;5025562;28;20080;-63
2022/12/15 13:47:24;;;;;;;61.85;29.95;;;;;;;0.06;100.00;98083.50;5040625;28;20049;-63
2022/12/15 13:50:18;;;;;;;63.90;31.58;;;;;;;0.00;100.00;98094.03;5046519;28;20049;-62
2022/12/15 13:53:03;;;;;;;65.53;30.80;;;;;;;0.15;100.00;98104.66;5040698;28;20045;-61
2022/12/15 13:55:57;;;;;;;63.55;29.65;;;;;;;0.10;100.00;98115.97;5046405;28;20045;-63
2022/12/15 13:58:46;;;;;;;70.57;30.73;;;;;;;0.04;100.00;98126.50;5044180;28;20460;-63
2022/12/15 14:01:32;;;;;;;71.30;32.95;;;;;;;-0.17;100.00;98121.22;5047509;28;20041;-65
2022/12/15 14:04:18;;;;;;;70.43;32.25;;;;;;;-0.29;100.00;98114.75;5047885;28;20045;-64
2022/12/15 14:07:05;;;;;;;67.68;30.65;;;;;;;-0.17;100.00;98115.22;5048422;28;20128;-61
2022/12/15 14:09:49;;;;;;;74.32;33.92;;;;;;;-0.18;100.00;98132.41;5046563;28;20099;-63
2022/12/15 14:12:38;;;;;;;65.63;31.10;;;;;;;0.01;100.00;98124.03;5047801;28;20051;-62
2022/12/15 14:15:30;;;;;;;65.80;29.88;;;;;;;-0.02;100.00;98134.44;5048135;28;20059;-62
2022/12/15 14:18:23;;;;;;;;;;;;;;;0.05;100.00;98140.22;5045130;28;20419;-62
2022/12/15 14:21:22;;;;;;;69.43;30.95;;;;;;;0.00;100.00;98132.66;5048195;28;20283;-63
2022/12/15 14:24:30;;;;;;;67.20;31.23;;;;;;;-0.16;100.00;98145.22;5036738;28;20408;-62
2022/12/15 14:27:22;;;;;;;64.57;28.70;;;;;;;-0.11;100.00;98137.34;5047802;28;20488;-62
2022/12/15 14:30:13;;;;;;;70.43;32.15;;;;;;;-0.11;100.00;98143.31;5046544;28;20098;-66
2022/12/15 14:33:02;;;;;;;73.68;33.30;;;;;;;-0.35;100.00;98129.56;5052535;28;20048;-63
2022/12/15 14:35:52;;;;;;;76.07;33.67;;;;;;;-0.46;100.00;98124.78;5041975;28;20508;-63
2022/12/15 14:38:36;;;;;;;70.55;32.13;;;;;;;-0.47;100.00;98107.66;5047520;28;20079;-63
2022/12/15 14:41:26;;;;;;;71.63;32.13;;;;;;;-0.48;100.00;98091.38;5048461;28;20451;-64
2022/12/15 14:44:20;;;;;;;69.95;30.95;;;;;;;-0.34;100.00;98090.88;5051736;28;20140;-63
2022/12/15 14:47:14;;;;;;;72.38;32.75;;;;;;;-0.33;100.00;98097.75;5049616;28;20128;-62
2022/12/15 14:50:01;;;;;;;71.20;32.10;;;;;;;-0.29;100.00;98090.72;5047498;28;20151;-63
2022/12/15 14:52:46;;;;;;;78.93;34.08;;;;;;;-0.36;100.00;98103.00;5047839;28;20102;-63
2022/12/15 14:55:38;;;;;;;75.72;33.45;;;;;;;-0.50;100.00;98106.03;5051148;28;20499;-63
2022/12/15 14:58:28;;;;;;;78.03;33.95;;;;;;;-0.48;100.00;98111.97;5050817;28;20045;-63
2022/12/15 15:01:23;;;;;;;77.38;32.05;;;;;;;-0.48;100.00;98113.69;5049873;28;20079;-63
2022/12/15 15:04:29;;;;;;;69.60;31.85;;;;;;;-0.55;100.00;98110.47;5043897;28;20494;-63
2022/12/15 15:07:17;;;;;;;68.97;31.15;;;;;;;-0.43;100.00;98096.38;5047948;28;20045;-65
2022/12/15 15:10:20;;;;;;;78.13;33.90;;;;;;;-0.50;100.00;98082.84;5046631;28;20102;-62
2022/12/15 15:13:05;;;;;;;82.18;33.25;;;;;;;-0.62;100.00;98064.38;5049154;28;20401;-64
2022/12/15 15:16:03;;;;;;;79.95;32.38;;;;;;;-0.72;100.00;98037.28;5049542;28;20045;-64
2022/12/15 15:18:50;;;;;;;88.88;33.60;;;;;;;-0.76;100.00;98033.13;5043395;28;20577;-63
2022/12/15 15:21:36;;;;;;;74.10;33.55;;;;;;;-0.62;100.00;98027.53;5038698;28;20036;-62
2022/12/15 15:24:38;;;;;;;83.88;34.10;;;;;;;-0.65;100.00;98041.31;5050344;28;20443;-63
2022/12/15 15:27:34;;;;;;;81.60;33.38;;;;;;;-0.63;100.00;98064.41;5050566;28;20060;-63
2022/12/15 15:30:21;;;;;;;88.10;35.70;;;;;;;-0.51;100.00;98079.44;5049290;28;20132;-68
2022/12/15 15:33:07;;;;;;;84.63;34.15;;;;;;;-0.46;100.00;98087.03;5046997;28;20084;-68